createdAt,value
2022-08-20T00:01:44.179Z,71.28
2022-08-20T00:04:11.909Z,70.81
2022-08-20T00:06:40.503Z,71.52
2022-08-20T00:09:07.940Z,72.33
2022-08-20T00:11:35.920Z,72.65
2022-08-20T00:14:05.964Z,71.89
2022-08-20T00:16:36.807Z,71.06
2022-08-20T00:19:07.752Z,70.73
2022-08-20T00:21:36.510Z,71.28
2022-08-20T00:24:05.495Z,72.37
2022-08-20T00:26:33.132Z,71.54
2022-08-20T00:29:00.834Z,72.12
2022-08-20T00:31:28.931Z,72.22
2022-08-20T00:33:56.241Z,71.69
2022-08-20T00:36:32.340Z,71.73
2022-08-20T00:39:01.363Z,72.25
2022-08-20T00:41:29.711Z,72.62
2022-08-20T00:44:06.297Z,72.50
2022-08-20T00:46:34.922Z,72.27
2022-08-20T00:49:03.949Z,71.74
2022-08-20T00:51:38.369Z,72.63
2022-08-20T00:54:11.625Z,72.73
2022-08-20T00:56:39.709Z,73.06
2022-08-20T00:59:12.501Z,72.62
2022-08-20T01:01:55.473Z,73.33
2022-08-20T01:04:26.531Z,73.29
2022-08-20T01:06:54.406Z,72.63
2022-08-20T01:09:49.945Z,72.87
2022-08-20T01:12:13.817Z,72.97
2022-08-20T01:14:46.654Z,72.36
2022-08-20T01:17:22.435Z,72.08
2022-08-20T01:20:08.584Z,73.38
2022-08-20T01:23:04.417Z,73.36
2022-08-20T01:26:00.481Z,72.90
2022-08-20T01:28:39.052Z,73.67
2022-08-20T01:31:08.700Z,73.05
2022-08-20T01:33:36.792Z,72.54
2022-08-20T01:36:06.547Z,72.37
2022-08-20T01:38:34.993Z,71.62
2022-08-20T01:41:33.882Z,72.48
2022-08-20T01:44:01.451Z,73.93
2022-08-20T01:46:34.985Z,74.40
2022-08-20T01:49:15.632Z,74.33
2022-08-20T01:51:49.665Z,74.88
2022-08-20T01:54:17.576Z,74.98
2022-08-20T01:56:57.167Z,73.75
2022-08-20T01:59:25.474Z,73.38
2022-08-20T02:01:53.329Z,74.26
2022-08-20T02:04:21.571Z,73.21
2022-08-20T02:06:57.923Z,72.98
2022-08-20T02:09:29.721Z,73.23
2022-08-20T02:11:59.226Z,73.33
2022-08-20T02:14:27.752Z,73.83
2022-08-20T02:16:58.718Z,75.70
2022-08-20T02:19:51.924Z,75.95
2022-08-20T02:22:31.913Z,76.56
2022-08-20T02:24:59.195Z,75.30
2022-08-20T02:27:26.825Z,75.90
2022-08-20T02:29:55.075Z,75.65
2022-08-20T02:32:24.927Z,74.56
2022-08-20T02:35:07.349Z,74.33
2022-08-20T02:37:36.691Z,74.35
2022-08-20T02:40:08.279Z,74.25
2022-08-20T02:42:39.438Z,73.78
2022-08-20T02:45:08.618Z,73.39
2022-08-20T02:47:41.812Z,73.52
2022-08-20T02:50:14.254Z,74.63
2022-08-20T02:52:42.742Z,74.77
2022-08-20T02:55:27.723Z,74.76
2022-08-20T02:57:59.060Z,74.90
2022-08-20T03:00:28.935Z,74.83
2022-08-20T03:03:00.610Z,75.26
2022-08-20T03:05:28.785Z,74.68
2022-08-20T03:07:59.494Z,74.44
2022-08-20T03:10:32.335Z,73.78
2022-08-20T03:13:02.469Z,73.37
2022-08-20T03:15:31.687Z,73.92
2022-08-20T03:17:59.354Z,74.07
2022-08-20T03:20:27.941Z,74.32
2022-08-20T03:22:55.960Z,74.06
2022-08-20T03:25:24.288Z,74.95
2022-08-20T03:27:55.011Z,75.18
2022-08-20T03:30:26.280Z,74.90
2022-08-20T03:32:55.519Z,75.79
2022-08-20T03:35:25.166Z,75.72
2022-08-20T03:37:55.670Z,75.72
2022-08-20T03:40:27.987Z,74.53
2022-08-20T03:42:56.575Z,73.53
2022-08-20T03:45:25.950Z,74.21
2022-08-20T03:47:57.470Z,74.31
2022-08-20T03:50:29.299Z,74.78
2022-08-20T03:52:57.893Z,74.97
2022-08-20T03:55:27.049Z,74.46
2022-08-20T03:57:57.656Z,73.94
2022-08-20T04:00:31.581Z,74.04
2022-08-20T04:03:00.710Z,74.14
2022-08-20T04:05:31.137Z,74.77
2022-08-20T04:08:03.105Z,75.34
2022-08-20T04:10:32.340Z,75.41
2022-08-20T04:13:01.637Z,74.99
2022-08-20T04:15:29.116Z,74.15
2022-08-20T04:17:56.686Z,74.11
2022-08-20T04:20:26.254Z,72.92
2022-08-20T04:23:02.049Z,73.73
2022-08-20T04:25:36.189Z,73.99
2022-08-20T04:28:06.447Z,74.56
2022-08-20T04:30:35.174Z,74.41
2022-08-20T04:33:02.812Z,73.36
2022-08-20T04:35:31.750Z,73.22
2022-08-20T04:38:15.689Z,73.49
2022-08-20T04:40:58.425Z,73.51
2022-08-20T04:43:33.558Z,74.08
2022-08-20T04:46:06.408Z,73.30
2022-08-20T04:48:34.222Z,74.38
2022-08-20T04:51:03.986Z,74.68
2022-08-20T04:53:31.532Z,75.13
2022-08-20T04:56:01.294Z,74.35
2022-08-20T04:58:35.371Z,74.24
2022-08-20T05:01:11.936Z,73.70
2022-08-20T05:03:40.737Z,73.28
2022-08-20T05:06:11.973Z,73.32
2022-08-20T05:08:40.729Z,73.15
2022-08-20T05:11:32.949Z,72.94
2022-08-20T05:13:59.074Z,73.99
2022-08-20T05:16:26.960Z,74.95
2022-08-20T05:18:54.621Z,76.17
2022-08-20T05:21:22.250Z,77.28
2022-08-20T05:23:49.980Z,76.89
2022-08-20T05:26:20.375Z,77.19
2022-08-20T05:28:58.001Z,77.21
2022-08-20T05:31:33.342Z,76.75
2022-08-20T05:34:10.654Z,75.75
2022-08-20T05:36:47.018Z,74.40
2022-08-20T05:39:20.868Z,74.10
2022-08-20T05:41:52.345Z,74.74
2022-08-20T05:44:19.968Z,74.89
2022-08-20T05:46:48.230Z,75.19
2022-08-20T05:49:22.183Z,74.63
2022-08-20T05:51:51.574Z,74.27
2022-08-20T05:54:19.513Z,73.03
2022-08-20T05:56:46.916Z,72.68
2022-08-20T05:59:14.399Z,72.68
2022-08-20T06:01:43.429Z,72.19
2022-08-20T06:04:32.171Z,71.73
2022-08-20T06:07:05.777Z,71.03
2022-08-20T06:09:35.235Z,72.35
2022-08-20T06:12:06.365Z,70.56
2022-08-20T06:14:34.319Z,70.52
2022-08-20T06:17:22.113Z,70.10
2022-08-20T06:19:50.086Z,69.90
2022-08-20T06:22:22.030Z,69.33
2022-08-20T06:24:53.615Z,69.34
2022-08-20T06:27:21.700Z,69.30
2022-08-20T06:29:50.690Z,71.51
2022-08-20T06:32:28.815Z,70.88
2022-08-20T06:35:06.092Z,71.76
2022-08-20T06:37:37.046Z,71.83
2022-08-20T06:40:13.922Z,70.06
2022-08-20T06:42:48.215Z,69.25
2022-08-20T06:45:26.552Z,69.26
2022-08-20T06:47:57.565Z,67.69
2022-08-20T06:50:43.242Z,67.44
2022-08-20T06:53:18.927Z,68.39
2022-08-20T06:55:50.577Z,66.66
2022-08-20T06:58:32.808Z,65.13
2022-08-20T07:01:09.105Z,64.16
2022-08-20T07:03:55.274Z,63.85
2022-08-20T07:06:28.069Z,63.95
2022-08-20T07:08:57.327Z,63.97
2022-08-20T07:11:28.094Z,63.03
2022-08-20T07:13:58.574Z,63.14
2022-08-20T07:16:27.402Z,62.55
2022-08-20T07:18:55.544Z,61.93
2022-08-20T07:21:23.166Z,62.31
2022-08-20T07:23:50.699Z,62.09
2022-08-20T07:26:18.555Z,61.73
2022-08-20T07:28:50.112Z,60.28
2022-08-20T07:31:38.859Z,59.67
2022-08-20T07:34:11.579Z,58.88
2022-08-20T07:36:39.607Z,59.18
2022-08-20T07:39:07.083Z,58.50
2022-08-20T07:41:35.191Z,58.33
2022-08-20T07:44:02.884Z,57.88
2022-08-20T07:46:31.837Z,58.36
2022-08-20T07:48:59.959Z,57.61
2022-08-20T07:51:27.877Z,57.74
2022-08-20T07:53:55.442Z,57.22
2022-08-20T07:56:24.619Z,56.25
2022-08-20T07:58:55.735Z,56.47
2022-08-20T08:01:26.720Z,56.05
2022-08-20T08:03:54.668Z,57.04
2022-08-20T08:06:28.955Z,57.47
2022-08-20T08:09:07.995Z,57.25
2022-08-20T08:11:38.609Z,55.30
2022-08-20T08:14:09.035Z,55.80
2022-08-20T08:16:38.023Z,54.51
2022-08-20T08:19:09.248Z,54.26
2022-08-20T08:21:36.738Z,55.57
2022-08-20T08:24:04.578Z,53.92
2022-08-20T08:26:32.558Z,52.67
2022-08-20T08:28:59.990Z,54.63
2022-08-20T08:31:27.414Z,54.12
2022-08-20T08:33:55.940Z,54.21
2022-08-20T08:36:23.411Z,54.56
2022-08-20T08:38:51.153Z,52.46
2022-08-20T08:41:50.229Z,53.45
2022-08-20T08:44:25.225Z,52.71
2022-08-20T08:46:57.868Z,53.05
2022-08-20T08:49:38.220Z,52.12
2022-08-20T08:52:16.238Z,53.41
2022-08-20T08:54:48.323Z,49.40
2022-08-20T08:57:16.754Z,50.12
2022-08-20T08:59:58.243Z,49.85
2022-08-20T09:02:35.593Z,49.93
2022-08-20T09:05:16.029Z,49.48
2022-08-20T09:07:48.586Z,49.03
2022-08-20T09:10:20.033Z,48.64
2022-08-20T09:12:52.555Z,48.79
2022-08-20T09:19:00.057Z,46.70
2022-08-20T09:21:28.005Z,48.53
2022-08-20T09:23:55.839Z,47.94
2022-08-20T09:26:23.390Z,46.95
2022-08-20T09:28:57.190Z,46.16
2022-08-20T09:31:24.862Z,46.53
2022-08-20T09:33:53.175Z,46.26
2022-08-20T09:36:29.006Z,45.59
2022-08-20T09:39:03.066Z,45.45
2022-08-20T09:41:33.701Z,45.41
2022-08-20T09:44:02.605Z,44.76
2022-08-20T09:46:30.041Z,43.73
2022-08-20T09:48:57.769Z,43.64
2022-08-20T09:51:35.827Z,44.78
2022-08-20T09:54:06.899Z,43.40
2022-08-20T09:56:35.962Z,42.61
2022-08-20T09:59:03.488Z,43.41
2022-08-20T10:01:31.787Z,44.12
2022-08-20T10:04:00.035Z,44.64
2022-08-20T10:06:27.516Z,43.29
2022-08-20T10:08:55.220Z,43.66
2022-08-20T10:11:22.939Z,42.57
2022-08-20T10:13:50.331Z,43.14
2022-08-20T10:16:17.722Z,43.21
2022-08-20T10:18:45.739Z,43.37
2022-08-20T10:21:13.520Z,43.84
2022-08-20T10:23:41.625Z,43.97
2022-08-20T10:30:14.753Z,43.23
2022-08-20T10:32:45.961Z,42.56
2022-08-20T10:35:13.780Z,42.80
2022-08-20T10:37:41.226Z,42.81
2022-08-20T10:40:09.957Z,43.06
2022-08-20T10:42:42.327Z,41.48
2022-08-20T10:45:16.389Z,43.35
2022-08-20T10:47:45.187Z,42.68
2022-08-20T10:50:16.055Z,40.61
2022-08-20T10:52:43.989Z,40.79
2022-08-20T10:55:11.785Z,37.91
2022-08-20T10:57:40.475Z,38.87
2022-08-20T11:00:10.499Z,39.08
2022-08-20T11:02:38.215Z,41.00
2022-08-20T11:05:07.249Z,38.26
2022-08-20T11:07:50.562Z,36.85
2022-08-20T11:10:29.142Z,38.47
2022-08-20T11:12:57.120Z,37.91
2022-08-20T11:15:25.385Z,37.28
2022-08-20T11:17:53.127Z,38.00
2022-08-20T11:20:23.783Z,36.95
2022-08-20T11:22:51.969Z,37.03
2022-08-20T11:25:20.224Z,38.08
2022-08-20T11:27:49.669Z,36.44
2022-08-20T11:30:33.536Z,37.29
2022-08-20T11:33:01.414Z,38.65
2022-08-20T11:35:49.007Z,39.50
2022-08-20T11:38:19.191Z,39.99
2022-08-20T11:40:47.144Z,40.82
2022-08-20T11:43:16.962Z,39.80
2022-08-20T11:45:48.559Z,40.07
2022-08-20T11:48:17.034Z,42.80
2022-08-20T11:50:45.199Z,42.08
2022-08-20T11:53:12.602Z,42.48
2022-08-20T11:55:40.625Z,40.22
2022-08-20T11:58:08.209Z,41.07
2022-08-20T12:00:37.246Z,42.08
2022-08-20T12:03:09.470Z,42.40
2022-08-20T12:05:39.844Z,43.25
2022-08-20T12:08:08.709Z,43.84
2022-08-20T12:10:37.728Z,44.67
2022-08-20T12:13:07.385Z,45.15
2022-08-20T12:15:36.950Z,46.30
2022-08-20T12:18:08.531Z,46.11
2022-08-20T12:20:37.491Z,46.36
2022-08-20T12:23:05.521Z,46.87
2022-08-20T12:25:33.965Z,46.47
2022-08-20T12:28:02.055Z,46.63
2022-08-20T12:30:29.404Z,47.05
2022-08-20T12:32:56.859Z,47.06
2022-08-20T12:35:25.121Z,48.14
2022-08-20T12:37:53.150Z,49.31
2022-08-20T12:40:32.156Z,49.00
2022-08-20T12:43:02.625Z,49.19
2022-08-20T12:45:30.837Z,48.01
2022-08-20T12:48:05.633Z,46.23
2022-08-20T12:50:35.084Z,45.86
2022-08-20T12:53:02.845Z,47.11
2022-08-20T12:55:31.153Z,49.19
2022-08-20T12:58:01.450Z,51.53
2022-08-20T13:00:35.840Z,50.43
2022-08-20T13:03:06.267Z,52.63
2022-08-20T13:05:35.432Z,55.02
2022-08-20T13:08:08.384Z,54.52
2022-08-20T13:10:38.187Z,56.49
2022-08-20T13:13:05.897Z,57.47
2022-08-20T13:15:33.635Z,57.33
2022-08-20T13:18:03.031Z,56.99
2022-08-20T13:20:31.671Z,57.84
2022-08-20T13:23:04.850Z,58.97
2022-08-20T13:25:33.747Z,59.18
2022-08-20T13:28:04.649Z,60.03
2022-08-20T13:30:34.340Z,62.03
2022-08-20T13:33:02.774Z,61.85
2022-08-20T13:35:30.346Z,62.87
2022-08-20T13:37:57.790Z,62.80
2022-08-20T13:40:26.126Z,63.22
2022-08-20T13:42:53.819Z,63.37
2022-08-20T13:45:21.294Z,62.38
2022-08-20T13:47:53.460Z,62.09
2022-08-20T13:57:58.187Z,60.77
2022-08-20T14:00:32.339Z,60.77
2022-08-20T14:03:01.848Z,61.26
2022-08-20T14:05:30.512Z,64.64
2022-08-20T14:08:08.243Z,64.53
2022-08-20T14:10:36.775Z,67.72
2022-08-20T14:13:06.867Z,66.62
2022-08-20T14:15:36.089Z,66.90
2022-08-20T14:18:05.363Z,68.38
2022-08-20T14:20:33.803Z,68.58
2022-08-20T14:23:02.380Z,71.03
2022-08-20T14:25:32.329Z,73.05
2022-08-20T14:28:10.023Z,74.21
2022-08-20T14:30:40.097Z,71.51
2022-08-20T14:33:07.500Z,74.39
2022-08-20T14:35:34.874Z,74.97
2022-08-20T14:38:03.322Z,76.09
2022-08-20T14:40:34.296Z,77.12
2022-08-20T14:43:01.946Z,76.51
2022-08-20T14:45:29.710Z,77.29
2022-08-20T14:47:58.755Z,75.30
2022-08-20T14:50:32.644Z,76.72
2022-08-20T14:53:01.486Z,78.75
2022-08-20T14:55:32.466Z,80.83
2022-08-20T14:58:00.265Z,79.83
2022-08-20T15:00:31.356Z,80.85
2022-08-20T15:02:59.143Z,80.13
2022-08-20T15:05:29.738Z,80.42
2022-08-20T15:07:57.701Z,80.11
2022-08-20T15:10:30.673Z,81.09
2022-08-20T15:12:59.289Z,80.55
2022-08-20T15:15:28.214Z,76.87
2022-08-20T15:18:00.421Z,78.91
2022-08-20T15:20:31.267Z,78.81
2022-08-20T15:22:59.411Z,80.19
2022-08-20T15:25:36.832Z,80.29
2022-08-20T15:28:08.933Z,79.59
2022-08-20T15:30:38.946Z,79.53
2022-08-20T15:33:07.495Z,78.77
2022-08-20T15:35:34.985Z,80.35
2022-08-20T15:38:03.141Z,81.76
2022-08-20T15:40:31.920Z,82.36
2022-08-20T15:43:01.503Z,82.48
2022-08-20T15:45:29.394Z,82.33
2022-08-20T15:48:01.934Z,83.39
2022-08-20T15:51:00.531Z,83.65
2022-08-20T15:53:36.122Z,82.91
2022-08-20T15:56:22.696Z,83.24
2022-08-20T15:58:59.153Z,82.75
2022-08-20T16:01:45.397Z,83.49
2022-08-20T16:04:35.223Z,81.52
2022-08-20T16:07:10.619Z,86.11
2022-08-20T16:10:02.021Z,84.46
2022-08-20T16:12:35.153Z,84.64
2022-08-20T16:15:25.878Z,85.38
2022-08-20T16:18:03.145Z,88.56
2022-08-20T16:20:38.969Z,88.34
2022-08-20T16:23:07.968Z,88.38
2022-08-20T16:25:59.024Z,86.88
2022-08-20T16:28:32.931Z,86.50
2022-08-20T16:31:14.102Z,87.33
2022-08-20T16:34:33.520Z,85.88
2022-08-20T16:37:41.725Z,84.26
2022-08-20T16:40:39.213Z,85.09
2022-08-20T16:43:54.825Z,85.11
2022-08-20T16:46:27.195Z,86.05
2022-08-20T16:49:00.354Z,85.87
2022-08-20T16:51:33.889Z,86.74
2022-08-20T16:54:01.662Z,88.09
2022-08-20T16:56:49.615Z,88.53
2022-08-20T16:59:26.517Z,87.98
2022-08-20T17:02:21.220Z,87.21
2022-08-20T17:04:59.341Z,86.87
2022-08-20T17:07:43.326Z,86.95
2022-08-20T17:10:29.919Z,86.67
2022-08-20T17:13:19.688Z,85.80
2022-08-20T17:15:56.238Z,86.63
2022-08-20T17:18:26.689Z,84.25
2022-08-20T17:21:00.974Z,86.07
2022-08-20T17:23:30.832Z,88.03
2022-08-20T17:26:02.869Z,86.95
2022-08-20T17:28:35.214Z,87.26
2022-08-20T17:31:03.658Z,89.93
2022-08-20T17:33:39.074Z,90.99
2022-08-20T17:36:22.671Z,89.16
2022-08-20T17:39:01.095Z,87.74
2022-08-20T17:41:33.284Z,87.53
2022-08-20T17:44:08.327Z,87.69
2022-08-20T17:46:44.163Z,89.32
2022-08-20T17:49:18.129Z,87.60
2022-08-20T17:51:52.887Z,87.95
2022-08-20T17:54:32.862Z,90.24
2022-08-20T17:57:12.921Z,91.11
2022-08-20T18:00:02.347Z,91.07
2022-08-20T18:02:34.255Z,90.62
2022-08-20T18:05:02.993Z,90.63
2022-08-20T18:08:11.861Z,91.71
2022-08-20T18:10:59.489Z,89.75
2022-08-20T18:14:10.650Z,90.86
2022-08-20T18:17:16.352Z,91.72
2022-08-20T18:20:05.555Z,90.88
2022-08-20T18:22:50.249Z,92.39
2022-08-20T18:25:36.999Z,94.01
2022-08-20T18:28:23.392Z,91.93
2022-08-20T18:31:00.579Z,92.74
2022-08-20T18:33:30.220Z,93.42
2022-08-20T18:36:28.483Z,90.68
2022-08-20T18:38:59.207Z,92.41
2022-08-20T18:41:30.385Z,91.58
2022-08-20T18:44:27.081Z,92.20
2022-08-20T18:46:59.187Z,91.56
2022-08-20T18:49:39.213Z,90.80
2022-08-20T18:52:11.439Z,89.26
2022-08-20T18:54:43.320Z,89.68
2022-08-20T18:57:23.053Z,89.08
2022-08-20T19:00:14.079Z,89.48
2022-08-20T19:03:00.778Z,87.70
2022-08-20T19:06:08.970Z,89.19
2022-08-20T19:08:40.695Z,90.46
2022-08-20T19:11:28.687Z,90.61
2022-08-20T19:14:33.825Z,89.02
2022-08-20T19:17:11.566Z,89.35
2022-08-20T19:19:39.160Z,90.32
2022-08-20T19:22:07.263Z,89.12
2022-08-20T19:24:35.740Z,89.22
2022-08-20T19:27:06.951Z,85.10
2022-08-20T19:29:39.861Z,87.48
2022-08-20T19:32:09.884Z,89.24
2022-08-20T19:34:38.373Z,90.39
2022-08-20T19:37:35.203Z,89.20
2022-08-20T19:40:01.515Z,87.48
2022-08-20T19:42:40.638Z,87.86
2022-08-20T19:45:16.082Z,86.98
2022-08-20T19:47:57.150Z,87.01
2022-08-20T19:50:40.098Z,85.99
2022-08-20T19:53:15.175Z,89.35
2022-08-20T19:55:43.006Z,89.74
2022-08-20T19:58:26.080Z,89.51
2022-08-20T20:00:55.846Z,88.34
2022-08-20T20:03:34.414Z,88.14
2022-08-20T20:06:18.177Z,90.17
2022-08-20T20:08:54.787Z,89.71
2022-08-20T20:11:36.751Z,91.94
2022-08-20T20:14:09.944Z,92.17
2022-08-20T20:16:39.858Z,93.49
2022-08-20T20:19:26.279Z,92.94
2022-08-20T20:22:08.472Z,93.54
2022-08-20T20:24:50.972Z,93.28
2022-08-20T20:27:22.836Z,93.79
2022-08-20T20:29:59.161Z,95.33
2022-08-20T20:32:27.970Z,93.49
2022-08-20T20:34:59.657Z,92.87
2022-08-20T20:37:49.980Z,92.42
2022-08-20T20:40:30.941Z,93.46
2022-08-20T20:43:12.143Z,93.94
2022-08-20T20:45:47.088Z,93.81
2022-08-20T20:48:18.408Z,91.66
2022-08-20T20:50:48.324Z,90.53
2022-08-20T20:53:32.305Z,90.82
2022-08-20T20:56:40.030Z,91.77
2022-08-20T20:59:09.989Z,92.84
2022-08-20T21:01:49.605Z,92.11
2022-08-20T21:04:23.241Z,92.75
2022-08-20T21:06:53.510Z,92.60
2022-08-20T21:09:21.995Z,92.78
2022-08-20T21:11:49.842Z,91.00
2022-08-20T21:14:18.635Z,90.19
2022-08-20T21:16:46.189Z,87.33
2022-08-20T21:19:14.102Z,88.55
2022-08-20T21:21:43.061Z,89.07
2022-08-20T21:24:10.960Z,89.66
2022-08-20T21:26:39.606Z,89.88
2022-08-20T21:29:09.623Z,90.41
2022-08-20T21:31:43.719Z,90.74
2022-08-20T21:34:14.172Z,90.82
2022-08-20T21:36:41.951Z,93.70
2022-08-20T21:39:09.725Z,96.64
2022-08-20T21:41:37.972Z,96.12
2022-08-20T21:44:17.969Z,96.13
2022-08-20T21:46:51.084Z,97.60
2022-08-20T21:49:20.039Z,99.53
2022-08-20T21:51:49.980Z,99.43
2022-08-20T21:54:18.366Z,99.70
2022-08-20T21:56:52.793Z,99.87
2022-08-20T21:59:22.429Z,99.21
2022-08-20T22:01:50.602Z,97.78
2022-08-20T22:04:18.736Z,97.36
2022-08-20T22:06:46.681Z,96.00
2022-08-20T22:09:14.595Z,95.26
2022-08-20T22:11:42.229Z,94.89
2022-08-20T22:14:11.780Z,94.15
2022-08-20T22:16:39.208Z,93.32
2022-08-20T22:19:16.242Z,91.02
2022-08-20T22:21:44.313Z,90.99
2022-08-20T22:24:13.493Z,93.86
2022-08-20T22:26:42.079Z,92.65
2022-08-20T22:29:11.848Z,90.79
2022-08-20T22:31:42.977Z,91.72
2022-08-20T22:34:13.581Z,93.48
2022-08-20T22:36:41.768Z,93.67
2022-08-20T22:39:09.746Z,92.29
2022-08-20T22:41:37.746Z,91.57
2022-08-20T22:44:05.100Z,91.68
2022-08-20T22:46:44.969Z,93.50
2022-08-20T22:49:22.520Z,95.46
2022-08-20T22:51:49.825Z,95.57
2022-08-20T22:54:21.055Z,93.75
2022-08-20T22:56:48.368Z,92.87
2022-08-20T22:59:19.806Z,93.67
2022-08-20T23:01:47.376Z,92.74
2022-08-20T23:04:22.178Z,92.02
2022-08-20T23:06:49.924Z,91.53
2022-08-20T23:09:20.953Z,92.07
2022-08-20T23:11:49.178Z,91.54
2022-08-20T23:14:17.066Z,88.40
2022-08-20T23:16:47.464Z,88.96
2022-08-20T23:19:23.219Z,90.68
2022-08-20T23:21:52.119Z,91.85
2022-08-20T23:24:19.765Z,90.82
2022-08-20T23:26:52.747Z,91.74
2022-08-20T23:29:25.895Z,92.59
2022-08-20T23:31:55.997Z,92.11
2022-08-20T23:34:25.218Z,93.05
2022-08-20T23:36:52.714Z,93.86
2022-08-20T23:39:20.366Z,93.42
2022-08-20T23:41:48.312Z,92.46
2022-08-20T23:44:25.805Z,91.09
2022-08-20T23:46:57.752Z,90.45
2022-08-20T23:49:25.722Z,91.63
2022-08-20T23:51:53.138Z,92.55
2022-08-20T23:54:21.053Z,92.04
2022-08-20T23:56:48.391Z,91.88
2022-08-20T23:59:15.648Z,91.58
